• Join FlightAware (Why Join?)
  • Login
  • US Flag 
02:02AM EST


 

Airport Tracker/Info


-or-


 

Live Flight TrackerFlight Track Log ✈ SWA2236 ✈ 15-Jul-2013 ✈ KBWI - KALB

Flight Track Log - Related Links

Times and Time Zones

All times are in EDT time to prevent confusion due to time zone crossing. See the SWA2236 flight status page for this flight to view local times or setup timezone preferences in your user account.

Time Position Orientation Groundspeed Altitude Reporting Facility
EDT Latitude Longitude Course Direction KTS MPH feet Rate Location/Type
10:57PM 39.1411 -76.7717 284° West 175 201 4,100  Level Washington Center
10:58PM 39.1167 -76.7019 114° Southeast 94 108 7,800 2,760 Climbing Washington Center
10:59PM 39.1175 -76.6164 89° East 147 169 9,700 2,400 Climbing Washington Center
11:00PM 39.1308 -76.5119 81° East 193 222 12,500 3,360 Climbing Washington Center
11:01PM 39.1403 -76.3569 85° East 302 348 16,500 3,480 Climbing Washington Center
11:02PM 39.1562 -76.5809 284° West  Level FlightAware Approximate
11:02PM 39.1492 -76.2286 85° East 346 398 19,500  Level Washington Center
11:03PM 39.1667 -76.0922 81° East 372 428 21,900 2,280 Climbing Washington Center
11:04PM 39.1839 -75.9531 81° East 384 442 24,100 1,500 Climbing Washington Center
11:05PM 39.2383 -75.8194 62° Northeast 395 455 25,000 660 Climbing Washington Center
11:06PM 39.3175 -75.7150 46° Northeast 395 455 25,500 960 Climbing Washington Center
11:07PM 39.4011 -75.6103 44° Northeast 403 464 27,000 1,680 Climbing Washington Center
11:08PM 39.4803 -75.5108 44° Northeast 397 457 28,900 600 Climbing Washington Center
11:10PM 39.6497 -75.2897 45° Northeast 406 467 29,000  Climbing New York Center
11:11PM 39.7244 -75.1839 47° Northeast 406 467 29,000  Level New York Center
11:12PM 39.7997 -75.0697 49° Northeast 406 467 29,000  Level New York Center
11:13PM 39.8722 -74.9661 48° Northeast 400 460 29,000  Level New York Center
11:14PM 39.9489 -74.8569 47° Northeast 395 455 29,000  Level New York Center
11:15PM 40.0372 -74.7753 35° Northeast 389 448 29,000  Level New York Center
11:16PM 40.1553 -74.7358 14° North 389 448 29,000  Level New York Center
11:17PM 40.2672 -74.6961 15° North 396 456 29,000  Level New York Center
11:18PM 40.3767 -74.6561 16° North 406 467 29,000  Level New York Center
11:19PM 40.4844 -74.6183 15° North 400 460 29,000  Level New York Center
11:20PM 40.5917 -74.5808 15° North 400 460 29,000 -540 Level New York Center
11:21PM 40.7014 -74.5431 15° North 400 460 28,000 -1,020 Descending New York Center
11:22PM 40.8086 -74.5078 14° North 400 460 27,000 -960 Descending New York Center
11:24PM 41.0242 -74.4292 15° North 395 455 25,200 -960 Descending Boston Center
11:25PM 41.1206 -74.3936 16° North 400 460 24,200 -600 Descending Boston Center
11:26PM 41.2400 -74.3586 12° North 400 460 24,000 -120 Descending Boston Center
11:27PM 41.3322 -74.3200 17° North 390 449 24,000  Level Boston Center
11:28PM 41.4350 -74.2814 16° North 385 443 24,000  Level Boston Center
11:29PM 41.5544 -74.2433 13° North 385 443 24,000 -300 Level Boston Center
11:30PM 41.6383 -74.2150 14° North 385 443 23,400 -1,680 Descending Boston Center
11:31PM 41.7619 -74.1683 16° North 379 436 20,700 -2,520 Descending Boston Center
11:31PM 41.8311 -74.1425 16° North 380 437 19,100 -2,220 Descending Boston Center
11:33PM 41.9400 -74.1008 16° North 366 421 16,700 -1,800 Descending Boston Center
11:34PM 42.0325 -74.0611 18° North 345 397 15,400 -1,680 Descending Boston Center
11:35PM 42.1206 -74.0131 22° Northeast 334 384 13,400 -2,040 Descending Boston Center
11:36PM 42.2044 -73.9761 18° North 328 377 11,400 -1,740 Descending Boston Center
11:37PM 42.2864 -73.9331 21° North 313 360 10,000 -1,680 Descending Boston Center
11:38PM 42.3619 -73.8983 19° North 279 321 8,100 -1,920 Descending Boston Center
11:39PM 42.4353 -73.8606 21° North 275 316 6,200 -1,680 Descending Boston Center
11:40PM 42.5067 -73.8200 23° Northeast 269 310 4,800 -1,080 Descending Boston Center
11:41PM 42.5653 -73.8017 13° North 201 231 4,100 -1,080 Descending Boston Center
11:42PM 42.6131 -73.8056 357° North 163 188 2,700 -1,200 Descending Boston Center
11:43PM 42.6589 -73.8036 North 161 185 1,700 -840 Descending Boston Center
11:44PM 42.6944 -73.8072 356° North 122 140 1,100 -660 Descending Boston Center
11:45PM 42.7297 -73.8081 359° North 116 133 400 -720 Descending Boston Center
11:48PM 42.7333 -73.8000 10° North  Level FlightAware Approximate
11:55PM 42.7491 -73.8020 10° North  Level Estimated